Flight Track Log - Related Links

Times and Time Zones

All times are in EDT time to prevent confusion due to time zone crossing. See the UAL256 flight status page for this flight to view local times or setup timezone preferences in your user account.


Time Position Orientation Groundspeed Altitude Reporting Facility
EDT Latitude Longitude Course Direction KTS MPH feet Rate Location/Type
Sun 08:45:52 PM 39.8833 -104.5667 83° East 186 214 7,700  Level Denver TRACON
Sun 08:46:46 PM 39.8833 -104.4833 90° East 255 293 9,100 2,211 Climbing Denver TRACON
Sun 08:47:46 PM 39.8833 -104.3833 90° East 312 359 11,900 2,581 Climbing Denver TRACON
Sun 08:48:00 PM 39.9571 -104.0788 66° East  Level FlightAware Approximate
Sun 08:48:12 PM 39.8750 -104.3197 100° East 323 372 12,800  Level Denver Center
Sun 08:49:00 PM 39.9836 -103.9315 79° East  Level FlightAware Approximate
Sun 08:49:14 PM 39.8981 -104.1886 77° East 386 444 14,600  Level Denver Center
Sun 08:50:00 PM 40.0078 -103.7845 57° Northeast  Level FlightAware Approximate
Sun 08:50:16 PM 39.9394 -104.0433 70° East 404 465 17,200  Level Denver Center
Sun 08:51:00 PM 40.0297 -103.6370 83° East  Level FlightAware Approximate
Sun 08:51:17 PM 39.9817 -103.8986 69° East 430 495 19,100  Level Denver Center
Sun 08:52:19 PM 40.0269 -103.7386 70° East 439 505 21,100 1,597 Climbing Denver Center
Sun 08:53:21 PM 40.0536 -103.5764 78° East 457 526 22,400 1,403 Climbing Denver Center
Sun 08:54:23 PM 40.0817 -103.4033 78° East 478 550 24,000 1,548 Climbing Denver Center
Sun 08:55:25 PM 40.1092 -103.2267 78° East 490 564 25,600 1,403 Climbing Denver Center
Sun 08:56:27 PM 40.1381 -103.0497 78° East 494 568 26,900 1,694 Climbing Denver Center
Sun 08:57:29 PM 40.1661 -102.8731 78° East 493 567 29,100 2,146 Climbing Denver Center
Sun 08:58:30 PM 40.1931 -102.6997 78° East 484 557 31,300 1,854 Climbing Denver Center
Sun 08:59:32 PM 40.2231 -102.4967 79° East 486 559 32,900 1,161 Climbing Denver Center
Sun 09:00:34 PM 40.2494 -102.3292 78° East 494 568 33,700 1,016 Climbing Denver Center
Sun 09:01:36 PM 40.2753 -102.1553 79° East 507 583 35,000 1,161 Climbing Denver Center
Sun 09:02:38 PM 40.3061 -101.9533 79° East 509 586 36,100 774 Climbing Denver Center
Sun 09:03:40 PM 40.3333 -101.7792 78° East 511 588 36,600 634 Climbing Denver Center
Sun 09:04:41 PM 40.3633 -101.5719 79° East 519 597 37,400 878 Climbing Denver Center
Sun 09:05:43 PM 40.3886 -101.3919 79° East 524 603 38,400 726 Climbing Denver Center
Sun 09:06:45 PM 40.4172 -101.1847 80° East 521 600 38,900 290 Climbing Denver Center
Sun 09:07:47 PM 40.4425 -101.0069 79° East 521 600 39,000 48 Climbing Denver Center
Sun 09:08:49 PM 40.4950 -100.8131 70° East 510 587 39,000 -48 Level Denver Center
Sun 09:09:51 PM 40.5525 -100.6589 64° Northeast 499 574 38,900  Descending Denver Center
Sun 09:10:52 PM 40.6197 -100.4772 64° Northeast 501 577 39,000 49 Climbing Denver Center
Sun 09:11:54 PM 40.6778 -100.3211 64° Northeast 501 577 39,000  Level Denver Center
Sun 09:12:56 PM 40.7447 -100.1375 64° Northeast 500 575 39,000  Level Denver Center
Sun 09:13:58 PM 40.8019 -99.9811 64° Northeast 498 573 39,000  Level Denver Center
Sun 09:15:00 PM 40.8708 -99.7906 64° Northeast 501 577 39,000  Level Denver Center
Sun 09:16:02 PM 40.9317 -99.6244 64° Northeast 502 578 39,000  Level Denver Center
Sun 09:17:03 PM 40.9911 -99.4564 65° Northeast 503 579 39,000  Level Denver Center
Sun 09:18:05 PM 41.0494 -99.2906 65° Northeast 499 574 39,000  Level Denver Center
Sun 09:19:07 PM 41.1083 -99.1250 65° Northeast 496 571 39,000  Level Denver Center
Sun 09:20:09 PM 41.1567 -98.9417 71° East 497 572 39,000 -50 Level Denver Center
Sun 09:21:07 PM 41.1878 -98.7794 76° East 499 574 38,900  Descending Minneapolis Center
Sun 09:22:09 PM 41.2214 -98.5981 76° East 504 580 39,000 49 Climbing Minneapolis Center
Sun 09:23:10 PM 41.2600 -98.3906 76° East 509 586 39,000  Level Minneapolis Center
Sun 09:24:12 PM 41.2936 -98.2078 76° East 508 585 39,000  Level Minneapolis Center
Sun 09:25:25 PM 41.3289 -98.0136 76° East 508 585 39,000  Level Minneapolis Center
Sun 09:26:27 PM 41.3683 -97.7953 76° East 506 582 39,000 -49 Level Minneapolis Center
Sun 09:27:28 PM 41.4006 -97.6131 77° East 506 582 38,900  Descending Minneapolis Center
Sun 09:28:30 PM 41.4322 -97.4306 77° East 506 582 39,000  Climbing Minneapolis Center
Sun 09:29:31 PM 41.4647 -97.2489 77° East 504 580 38,900  Descending Minneapolis Center
Sun 09:30:32 PM 41.4964 -97.0653 77° East 507 583 39,000 49 Climbing Minneapolis Center
Sun 09:31:34 PM 41.5281 -96.8814 77° East 508 585 39,000  Level Minneapolis Center
Sun 09:32:35 PM 41.5592 -96.6992 77° East 503 579 39,000  Level Minneapolis Center
Sun 09:33:36 PM 41.5906 -96.5136 77° East 508 585 39,000  Level Minneapolis Center
Sun 09:34:38 PM 41.6256 -96.3011 78° East 517 595 39,000  Level Minneapolis Center
Sun 09:35:39 PM 41.6525 -96.1342 78° East 514 592 39,000 -49 Level Minneapolis Center
Sun 09:36:40 PM 41.6897 -95.9081 77° East 513 590 38,900 -49 Descending Minneapolis Center
Sun 09:37:42 PM 41.7206 -95.7197 78° East 514 592 38,900 49 Level Minneapolis Center
Sun 09:38:43 PM 41.7494 -95.5303 78° East 517 595 39,000 49 Climbing Minneapolis Center
Sun 09:39:44 PM 41.7789 -95.3431 78° East 514 592 39,000  Level Minneapolis Center
Sun 09:40:45 PM 41.8078 -95.1564 78° East 510 587 39,000 -49 Level Minneapolis Center
Sun 09:41:47 PM 41.8364 -94.9717 78° East 507 583 38,900 -49 Descending Minneapolis Center
Sun 09:42:48 PM 41.8622 -94.7853 79° East 508 585 38,900 49 Level Minneapolis Center
Sun 09:43:49 PM 41.8922 -94.6011 78° East 505 581 39,000 49 Climbing Minneapolis Center
Sun 09:44:50 PM 41.9183 -94.4175 79° East 502 578 39,000  Level Minneapolis Center
Sun 09:45:52 PM 41.9456 -94.2311 79° East 507 583 39,000 -49 Level Minneapolis Center
Sun 09:46:53 PM 41.9736 -94.0494 78° East 500 575 38,900  Descending Minneapolis Center
Sun 09:47:54 PM 42.0028 -93.8472 79° East 503 579 39,000 49 Climbing Minneapolis Center
Sun 09:48:55 PM 42.0289 -93.6628 79° East 506 582 39,000  Level Minneapolis Center
Sun 09:49:56 PM 42.0539 -93.4814 79° East 501 577 39,000 -49 Level Minneapolis Center
Sun 09:50:58 PM 42.0781 -93.2997 80° East 498 573 38,900 -49 Descending Minneapolis Center
Sun 09:51:59 PM 42.1028 -93.1172 80° East 499 574 38,900 49 Level Minneapolis Center
Sun 09:53:00 PM 42.1322 -92.8964 80° East 503 579 39,000 49 Climbing Minneapolis Center
Sun 09:54:01 PM 42.1572 -92.7136 79° East 503 579 39,000 -246 Level Minneapolis Center
Sun 09:55:02 PM 42.1800 -92.5303 80° East 502 578 38,500 -738 Descending Minneapolis Center
Sun 09:56:03 PM 42.2047 -92.3450 80° East 506 582 37,500 -984 Descending Minneapolis Center
Sun 09:57:04 PM 42.2281 -92.1633 80° East 501 577 36,500 -886 Descending Minneapolis Center
Sun 09:57:31 PM 42.2367 -92.0883 81° East 499 574 36,200 -1,016 Descending Chicago Center
Sun 09:59:08 PM 42.2769 -91.7700 80° East 489 563 34,400 -1,024 Descending Minneapolis Center
Sun 09:59:34 PM 42.2861 -91.6961 80° East 489 563 34,100 -897 Descending Chicago Center
Sun 10:00:35 PM 42.3075 -91.5194 81° East 487 560 33,100 -541 Descending Chicago Center
Sun 10:01:36 PM 42.3281 -91.3436 81° East 483 556 33,000 -98 Descending Chicago Center
Sun 10:02:38 PM 42.3497 -91.1653 81° East 492 566 32,900 -537 Descending Chicago Center
Sun 10:03:39 PM 42.3692 -90.9872 82° East 488 562 31,900 -1,317 Descending Chicago Center
Sun 10:04:41 PM 42.3942 -90.7764 81° East 481 554 30,200 -1,561 Descending Chicago Center
Sun 10:05:42 PM 42.4131 -90.5986 82° East 482 555 28,700 -1,525 Descending Chicago Center
Sun 10:06:43 PM 42.4308 -90.4186 82° East 487 560 27,100 -1,561 Descending Chicago Center
Sun 10:07:45 PM 42.4428 -90.2356 85° East 492 566 25,500 -1,561 Descending Chicago Center
Sun 10:08:46 PM 42.4364 -90.0578 93° East 481 554 23,900 -1,230 Descending Chicago Center
Sun 10:09:47 PM 42.4300 -89.8769 93° East 468 539 23,000 -439 Descending Chicago Center
Sun 10:10:49 PM 42.4242 -89.7033 93° East 463 533 23,000 -537 Level Chicago Center
Sun 10:11:50 PM 42.4164 -89.5008 93° East 464 534 21,900 -1,721 Descending Chicago Center
Sun 10:12:51 PM 42.4097 -89.3322 93° East 451 519 19,500 -2,146 Descending Chicago Center
Sun 10:13:53 PM 42.4039 -89.1672 93° East 443 510 17,500 -2,195 Descending Chicago Center
Sun 10:14:54 PM 42.3969 -89.0103 93° East 423 487 15,000 -2,311 Descending Chicago Center
Sun 10:15:55 PM 42.3911 -88.8608 93° East 404 465 12,800 -1,721 Descending Chicago Center
Sun 10:16:56 PM 42.3853 -88.7281 93° East 359 413 11,500 -1,366 Descending Chicago Center
Sun 10:17:58 PM 42.3794 -88.6086 94° East 326 375 10,000 -1,220 Descending Chicago Center
Sun 10:18:59 PM 42.3747 -88.4975 93° East 304 350 9,000 -885 Descending Chicago Center
Sun 10:20:00 PM 42.3386 -88.3803 113° Southeast 289 333 8,200 -934 Descending Chicago Center
Sun 10:21:01 PM 42.3086 -88.2969 116° Southeast 282 325 7,100 -590 Descending Chicago Center
Sun 10:22:02 PM 42.2506 -88.2300 140° Southeast 274 315 7,000 -537 Descending Chicago Center
Sun 10:23:04 PM 42.1939 -88.1636 139° Southeast 271 312 6,000 -1,122 Descending Chicago Center
Sun 10:24:05 PM 42.1386 -88.1017 140° Southeast 264 304 4,700 -1,426 Descending Chicago Center
Sun 10:25:06 PM 42.0825 -88.0353 139° Southeast 235 270 3,100 -1,180 Descending Chicago Center
Sun 10:26:07 PM 42.0492 -88.0003 142° Southeast 191 220 2,300 -787 Descending Chicago Center

Login

Don't have an account? Register now (free) for customized features, flight alerts, and more!